Time;durP1;ratioP1;P1;durP2;ratioP2;P2;SDS_P1;SDS_P2;PMS_P1;PMS_P2;Temp;Humidity;BMP_temperature;BMP_pressure;BME280_temperature;BME280_humidity;BME280_pressure;Samples;Min_cycle;Max_cycle;Signal;HPM_P1;HPM_P2
2023/01/20 00:01:13;;;;;;;19.47;10.97;;;;;;;0.46;100.00;101242.28;5015761;28;20032;-71
2023/01/20 00:03:44;;;;;;;14.33;9.60;;;;;;;0.26;100.00;101207.56;5015422;28;20285;-71
2023/01/20 00:06:10;;;;;;;16.00;10.07;;;;;;;0.47;100.00;101231.72;5015443;28;20315;-70
2023/01/20 00:08:37;;;;;;;15.97;9.67;;;;;;;0.40;100.00;101226.91;5014978;28;20685;-70
2023/01/20 00:11:11;;;;;;;14.87;9.50;;;;;;;0.39;100.00;101231.31;5014788;28;20264;-70
2023/01/20 00:13:37;;;;;;;17.50;10.00;;;;;;;0.37;100.00;101240.19;5015181;28;20678;-69
2023/01/20 00:16:04;;;;;;;15.10;9.37;;;;;;;0.36;100.00;101246.34;5014851;28;20256;-70
2023/01/20 00:18:30;;;;;;;22.33;9.77;;;;;;;0.36;100.00;101243.75;5014914;28;20632;-69
2023/01/20 00:20:55;;;;;;;18.27;9.63;;;;;;;0.34;100.00;101232.50;5015028;28;20268;-70
2023/01/20 00:23:21;;;;;;;18.80;11.27;;;;;;;0.35;100.00;101226.34;5014706;28;20256;-70
2023/01/20 00:25:47;;;;;;;17.93;10.50;;;;;;;0.39;100.00;101235.69;5014781;28;20036;-71
2023/01/20 00:28:12;;;;;;;18.43;9.67;;;;;;;0.38;100.00;101232.25;5014827;28;20038;-70
2023/01/20 00:30:38;;;;;;;20.47;11.77;;;;;;;0.33;100.00;101233.44;5014895;28;20188;-71
2023/01/20 00:33:03;;;;;;;16.17;9.57;;;;;;;0.27;100.00;101230.19;5014760;28;20081;-70
2023/01/20 00:35:29;;;;;;;19.37;10.77;;;;;;;0.35;100.00;101242.06;5014801;28;20052;-70
2023/01/20 00:37:54;;;;;;;22.37;10.67;;;;;;;0.32;100.00;101226.50;5014519;28;20033;-71
2023/01/20 00:40:20;;;;;;;16.93;10.07;;;;;;;0.36;100.00;101228.88;4997178;28;20537;-70
2023/01/20 00:42:45;;;;;;;17.23;10.47;;;;;;;0.31;100.00;101220.41;5014336;28;20026;-71
2023/01/20 00:45:10;;;;;;;16.37;9.97;;;;;;;0.35;100.00;101236.81;5014540;28;20374;-72
2023/01/20 00:48:01;;;;;;;33.83;10.97;;;;;;;0.32;100.00;101229.97;5014578;28;20084;-72
2023/01/20 00:50:26;;;;;;;17.63;9.30;;;;;;;0.28;100.00;101224.03;5014351;28;20261;-71
2023/01/20 00:52:52;;;;;;;18.57;9.93;;;;;;;0.34;100.00;101227.25;5014361;28;20038;-70
2023/01/20 00:55:17;;;;;;;19.17;9.77;;;;;;;0.32;100.00;101232.59;5014208;28;20113;-71
2023/01/20 00:57:42;;;;;;;14.30;9.83;;;;;;;0.30;100.00;101226.59;5014023;28;20025;-70
2023/01/20 01:00:08;;;;;;;18.47;9.37;;;;;;;0.37;100.00;101242.81;5014077;28;20385;-70
2023/01/20 01:02:38;;;;;;;14.73;9.50;;;;;;;0.34;100.00;101235.13;5013939;28;20457;-70
2023/01/20 01:05:04;;;;;;;15.30;9.57;;;;;;;0.36;100.00;101248.97;5013980;28;20284;-71
2023/01/20 01:07:30;;;;;;;17.23;10.00;;;;;;;0.37;100.00;101246.28;5014194;28;20281;-69
2023/01/20 01:09:55;;;;;;;20.87;9.83;;;;;;;0.45;100.00;101253.69;5013439;28;20503;-70
2023/01/20 01:12:21;;;;;;;17.37;9.13;;;;;;;0.46;100.00;101250.16;4996328;28;20022;-70
2023/01/20 01:14:46;;;;;;;13.70;10.37;;;;;;;0.41;100.00;101241.69;5013900;28;20033;-70
2023/01/20 01:17:12;;;;;;;16.60;9.67;;;;;;;0.38;100.00;101247.97;5013867;28;20447;-70
2023/01/20 01:19:37;;;;;;;16.73;10.57;;;;;;;0.36;100.00;101248.97;5013898;28;20025;-70
2023/01/20 01:22:03;;;;;;;17.67;10.30;;;;;;;0.33;100.00;101239.53;5013785;28;20026;-72
2023/01/20 01:24:28;;;;;;;13.13;9.10;;;;;;;0.30;100.00;101240.53;5014316;28;20508;-70
2023/01/20 01:26:54;;;;;;;18.73;10.37;;;;;;;0.33;100.00;101242.13;4996290;28;20531;-69
2023/01/20 01:29:19;;;;;;;17.70;10.50;;;;;;;0.37;100.00;101233.16;5013806;28;20065;-69
2023/01/20 01:31:45;;;;;;;15.20;9.03;;;;;;;0.41;100.00;101225.97;5013720;28;20030;-71
2023/01/20 01:34:10;;;;;;;15.10;10.80;;;;;;;0.49;100.00;101213.28;5013659;28;20022;-70
2023/01/20 01:36:36;;;;;;;14.07;9.23;;;;;;;0.50;100.00;101209.72;5013251;28;20029;-70
2023/01/20 01:39:01;;;;;;;12.47;8.67;;;;;;;0.41;100.00;101199.78;4995811;28;20611;-69
2023/01/20 01:41:27;;;;;;;22.60;11.90;;;;;;;0.43;100.00;101208.41;5013553;28;20029;-69
2023/01/20 01:44:19;;;;;;;23.40;11.80;;;;;;;0.42;100.00;101206.72;5013468;28;20073;-71
2023/01/20 01:46:45;;;;;;;25.97;12.27;;;;;;;0.30;100.00;101209.09;5010568;28;20041;-69
2023/01/20 01:49:14;;;;;;;24.33;12.27;;;;;;;0.37;100.00;101220.06;5013535;28;20319;-70
2023/01/20 01:51:47;;;;;;;19.13;12.43;;;;;;;0.44;100.00;101223.19;5013611;28;20365;-69
2023/01/20 01:54:17;;;;;;;15.20;9.53;;;;;;;0.38;100.00;101206.03;5013676;28;20253;-69
2023/01/20 01:56:45;;;;;;;18.73;11.13;;;;;;;0.54;100.00;101219.09;5013525;28;20712;-70
2023/01/20 01:59:13;;;;;;;23.50;9.70;;;;;;;0.53;100.00;101225.28;5013250;28;20736;-71
2023/01/20 02:01:43;;;;;;;22.83;12.40;;;;;;;0.47;100.00;101243.97;5012730;28;20288;-70
2023/01/20 02:04:15;;;;;;;17.77;11.27;;;;;;;0.39;100.00;101257.50;5013354;28;20341;-70
2023/01/20 02:06:44;;;;;;;19.10;10.30;;;;;;;0.42;100.00;101270.44;5013112;28;20268;-70
2023/01/20 02:09:11;;;;;;;18.03;12.10;;;;;;;0.46;100.00;101285.06;5012772;28;20659;-71
2023/01/20 02:11:59;;;;;;;21.47;10.57;;;;;;;0.53;100.00;101282.94;5012900;28;20395;-70
2023/01/20 02:14:33;;;;;;;18.08;10.98;;;;;;;0.52;100.00;101286.47;5012803;28;20261;-69
2023/01/20 02:17:17;;;;;;;19.07;13.60;;;;;;;0.54;100.00;101289.84;5012755;28;20042;-70
2023/01/20 02:20:11;;;;;;;24.00;13.77;;;;;;;0.56;100.00;101309.81;4995254;28;20356;-71
2023/01/20 02:22:55;;;;;;;23.17;13.43;;;;;;;0.58;100.00;101312.38;5011525;28;20736;-70
2023/01/20 02:26:06;;;;;;;22.00;11.50;;;;;;;0.68;100.00;101299.59;5012810;28;20253;-70
2023/01/20 02:28:37;;;;;;;16.40;11.00;;;;;;;0.66;100.00;101294.44;5009019;28;20628;-70
2023/01/20 02:31:15;;;;;;;16.33;11.10;;;;;;;0.74;100.00;101294.00;5012588;28;20762;-69
2023/01/20 02:33:59;;;;;;;17.10;9.50;;;;;;;0.72;100.00;101299.31;5012391;28;20261;-71
2023/01/20 02:36:46;;;;;;;15.70;9.33;;;;;;;0.74;100.00;101313.19;5012326;28;20267;-70
2023/01/20 02:39:20;;;;;;;17.90;10.70;;;;;;;0.78;100.00;101313.88;5012027;28;20315;-70
2023/01/20 02:41:51;;;;;;;16.10;10.37;;;;;;;0.87;100.00;101313.38;5012542;28;20253;-69
2023/01/20 02:44:27;;;;;;;16.73;11.63;;;;;;;0.85;100.00;101310.81;5012119;28;20586;-71
2023/01/20 02:47:01;;;;;;;21.37;9.97;;;;;;;0.82;100.00;101310.97;4994529;28;20276;-71
2023/01/20 02:49:34;;;;;;;19.90;10.90;;;;;;;0.83;100.00;101311.81;5012228;28;20334;-70
2023/01/20 02:52:15;;;;;;;15.10;10.77;;;;;;;0.76;100.00;101320.97;4994849;28;20297;-70
2023/01/20 02:54:46;;;;;;;16.20;10.23;;;;;;;0.67;100.00;101316.25;5012479;28;20269;-68
2023/01/20 02:57:17;;;;;;;18.23;11.70;;;;;;;0.64;100.00;101322.50;5012343;28;20289;-71
2023/01/20 02:59:49;;;;;;;21.07;11.27;;;;;;;0.68;100.00;101310.06;5012382;28;20335;-71
2023/01/20 03:02:20;;;;;;;17.73;13.07;;;;;;;0.69;100.00;101320.47;5012274;28;20276;-69
2023/01/20 03:04:59;;;;;;;21.37;15.20;;;;;;;0.67;100.00;101326.75;4994499;28;20288;-70
2023/01/20 03:07:28;;;;;;;20.52;13.98;;;;;;;0.64;100.00;101317.28;5011949;28;20261;-69
2023/01/20 03:10:00;;;;;;;21.40;13.43;;;;;;;0.60;100.00;101316.59;5012240;28;20025;-71
2023/01/20 03:12:37;;;;;;;23.77;13.83;;;;;;;0.60;100.00;101321.00;5012195;28;20307;-70
2023/01/20 03:15:03;;;;;;;18.33;12.73;;;;;;;0.59;100.00;101316.69;5012186;28;20260;-70
2023/01/20 03:17:32;;;;;;;19.70;13.87;;;;;;;0.61;100.00;101306.97;5012276;28;20276;-69
2023/01/20 03:19:57;;;;;;;26.97;14.17;;;;;;;0.71;100.00;101312.53;4994633;28;20295;-70
2023/01/20 03:22:23;;;;;;;17.60;12.93;;;;;;;0.74;100.00;101318.44;5012089;28;20256;-69
2023/01/20 03:24:49;;;;;;;17.20;11.83;;;;;;;0.80;100.00;101323.31;5011939;28;20516;-69
2023/01/20 03:27:14;;;;;;;19.73;11.30;;;;;;;0.85;100.00;101316.03;5026884;28;20365;-71
2023/01/20 03:29:40;;;;;;;19.77;11.97;;;;;;;0.88;100.00;101313.28;5012110;28;20721;-70
2023/01/20 03:32:09;;;;;;;17.27;11.60;;;;;;;0.87;100.00;101310.75;5012334;28;20030;-70
2023/01/20 03:34:37;;;;;;;20.50;12.47;;;;;;;0.81;100.00;101298.78;5015966;28;20037;-70
2023/01/20 03:37:04;;;;;;;16.25;11.32;;;;;;;0.93;100.00;101313.00;4998351;28;20268;-70
2023/01/20 03:39:31;;;;;;;17.57;11.60;;;;;;;0.95;100.00;101302.44;5015952;28;20046;-71
2023/01/20 03:42:06;;;;;;;19.43;12.00;;;;;;;1.11;100.00;101303.22;5015780;28;20355;-69
2023/01/20 03:44:31;;;;;;;16.30;11.10;;;;;;;1.17;100.00;101311.59;5015871;28;20261;-70
2023/01/20 03:47:11;;;;;;;16.20;11.53;;;;;;;1.21;100.00;101296.53;5015630;28;20268;-71
2023/01/20 03:49:49;;;;;;;19.67;11.43;;;;;;;1.22;100.00;101296.44;4998202;28;20038;-69
2023/01/20 03:52:18;;;;;;;23.37;12.83;;;;;;;1.17;100.00;101301.09;5016186;28;20257;-69
2023/01/20 03:54:51;;;;;;;17.80;12.05;;;;;;;1.12;100.00;101300.50;5015895;28;20265;-71
2023/01/20 03:57:20;;;;;;;25.27;12.73;;;;;;;1.17;100.00;101305.50;5015903;28;20033;-71
2023/01/20 03:59:49;;;;;;;19.87;12.77;;;;;;;1.15;100.00;101312.59;5015246;28;20277;-71
2023/01/20 04:02:14;;;;;;;24.73;13.85;;;;;;;1.14;100.00;101313.53;5015347;28;20372;-73
2023/01/20 04:04:43;;;;;;;24.23;14.40;;;;;;;1.06;100.00;101293.00;5015581;28;20117;-70
2023/01/20 04:07:13;;;;;;;17.53;11.90;;;;;;;1.20;100.00;101313.19;5016952;28;20038;-70
2023/01/20 04:09:43;;;;;;;21.23;13.90;;;;;;;1.23;100.00;101305.16;5015452;28;20285;-71
2023/01/20 04:12:09;;;;;;;18.17;12.13;;;;;;;1.17;100.00;101295.03;4998126;28;20265;-70
2023/01/20 04:14:35;;;;;;;19.60;11.63;;;;;;;1.17;100.00;101295.03;5015407;28;20299;-71
2023/01/20 04:17:03;;;;;;;18.40;12.23;;;;;;;1.21;100.00;101293.91;5015341;28;20116;-72
2023/01/20 04:19:28;;;;;;;22.50;13.83;;;;;;;1.24;100.00;101304.22;5014979;28;20157;-69
2023/01/20 04:22:06;;;;;;;24.40;12.37;;;;;;;1.26;100.00;101296.25;5014781;28;20277;-70
2023/01/20 04:24:41;;;;;;;19.58;13.18;;;;;;;1.23;100.00;101292.88;5015559;28;20033;-72
2023/01/20 04:27:06;;;;;;;16.63;12.13;;;;;;;1.03;100.00;101242.50;5014916;28;20145;-72
2023/01/20 04:29:32;;;;;;;20.87;13.10;;;;;;;1.34;100.00;101296.63;5014807;28;20748;-72
2023/01/20 04:31:59;;;;;;;23.00;13.10;;;;;;;1.37;100.00;101297.28;5014710;28;20160;-69
2023/01/20 04:34:25;;;;;;;22.73;12.80;;;;;;;1.41;100.00;101296.16;4981843;28;20381;-68
2023/01/20 04:36:52;;;;;;;22.03;13.10;;;;;;;1.42;100.00;101294.41;5014663;28;20265;-70
2023/01/20 04:39:18;;;;;;;20.07;12.17;;;;;;;1.39;100.00;101305.91;5016042;28;20265;-74
2023/01/20 04:41:43;;;;;;;19.30;11.83;;;;;;;1.40;100.00;101318.09;5016371;28;20280;-70
2023/01/20 04:44:09;;;;;;;26.37;12.57;;;;;;;1.31;100.00;101308.16;5013665;28;20461;-70
2023/01/20 04:46:35;;;;;;;20.90;12.90;;;;;;;1.33;100.00;101316.78;5013257;28;20030;-68
2023/01/20 04:49:00;;;;;;;15.50;10.77;;;;;;;1.42;100.00;101316.22;5014073;28;20426;-70
2023/01/20 04:51:28;;;;;;;19.23;11.73;;;;;;;1.45;100.00;101323.97;5014150;28;20474;-70
2023/01/20 04:53:58;;;;;;;18.13;10.80;;;;;;;1.47;100.00;101308.97;4996503;28;20323;-71
2023/01/20 04:56:23;;;;;;;17.63;11.50;;;;;;;1.54;100.00;101326.03;5014245;28;20038;-71
2023/01/20 04:58:49;;;;;;;15.13;10.27;;;;;;;1.54;100.00;101319.94;5013859;28;20380;-71
2023/01/20 05:01:14;;;;;;;20.80;12.10;;;;;;;1.58;100.00;101325.84;5014140;28;20026;-69
2023/01/20 05:03:40;;;;;;;19.50;12.80;;;;;;;1.52;100.00;101316.56;5014216;28;20485;-71
2023/01/20 05:06:08;;;;;;;20.57;12.13;;;;;;;1.48;100.00;101313.28;4996073;28;20061;-70
2023/01/20 05:08:34;;;;;;;17.53;11.10;;;;;;;1.44;100.00;101303.03;5014266;28;20315;-71
2023/01/20 05:10:59;;;;;;;23.37;13.10;;;;;;;1.47;100.00;101302.88;5013533;28;20313;-69
2023/01/20 05:13:25;;;;;;;19.43;10.43;;;;;;;1.51;100.00;101299.13;4996536;28;20060;-70
2023/01/20 05:15:51;;;;;;;18.53;11.50;;;;;;;1.53;100.00;101297.25;5013644;28;20461;-73
2023/01/20 05:18:16;;;;;;;18.27;12.57;;;;;;;1.42;100.00;101290.00;5013884;28;20469;-71
2023/01/20 05:20:44;;;;;;;22.90;14.03;;;;;;;1.44;100.00;101298.63;4996529;28;20026;-70
2023/01/20 05:23:10;;;;;;;19.85;13.57;;;;;;;1.38;100.00;101298.13;5014547;28;20026;-72
2023/01/20 05:25:35;;;;;;;23.50;13.93;;;;;;;1.35;100.00;101299.16;5014140;28;20425;-71
2023/01/20 05:28:01;;;;;;;23.10;13.80;;;;;;;1.38;100.00;101298.97;5013555;28;20038;-69
2023/01/20 05:30:26;;;;;;;21.33;13.47;;;;;;;1.40;100.00;101307.59;5013817;28;20030;-70
2023/01/20 05:32:52;;;;;;;21.60;13.80;;;;;;;1.36;100.00;101306.09;5013601;28;20141;-71
2023/01/20 05:35:17;;;;;;;22.77;13.87;;;;;;;1.42;100.00;101307.53;5013620;28;20465;-70
2023/01/20 05:37:43;;;;;;;20.67;12.77;;;;;;;1.39;100.00;101316.41;5013311;28;20448;-71
2023/01/20 05:40:09;;;;;;;25.70;15.67;;;;;;;1.33;100.00;101308.91;5013276;28;20038;-71
2023/01/20 05:42:34;;;;;;;22.27;13.23;;;;;;;1.06;100.00;101281.66;5013601;28;20105;-71
2023/01/20 05:45:00;;;;;;;21.37;13.73;;;;;;;1.31;100.00;101323.91;5012505;28;20352;-71
2023/01/20 05:47:25;;;;;;;21.63;14.17;;;;;;;1.31;100.00;101317.81;5013948;28;20040;-73
2023/01/20 05:49:51;;;;;;;19.40;12.37;;;;;;;1.22;100.00;101308.72;5013913;28;20120;-70
2023/01/20 05:52:17;;;;;;;19.23;11.27;;;;;;;1.19;100.00;101317.59;5013555;28;20096;-71
2023/01/20 05:54:43;;;;;;;17.63;11.73;;;;;;;1.21;100.00;101328.84;5013394;28;20269;-70
2023/01/20 05:57:08;;;;;;;19.70;11.40;;;;;;;1.15;100.00;101318.69;5013080;28;20041;-70
2023/01/20 05:59:34;;;;;;;20.37;12.73;;;;;;;1.14;100.00;101327.50;4995827;28;20049;-71
2023/01/20 06:02:01;;;;;;;20.20;11.23;;;;;;;1.16;100.00;101322.19;5012980;28;20117;-71
2023/01/20 06:04:26;;;;;;;21.97;12.63;;;;;;;1.14;100.00;101316.16;5013124;28;20030;-70
2023/01/20 06:06:53;;;;;;;17.43;12.67;;;;;;;1.13;100.00;101327.59;4995615;28;20815;-69
2023/01/20 06:09:18;;;;;;;17.47;12.73;;;;;;;1.11;100.00;101327.66;4995190;28;20108;-70
2023/01/20 06:11:43;;;;;;;16.50;11.97;;;;;;;1.09;100.00;101333.94;4995374;28;20307;-72
2023/01/20 06:14:09;;;;;;;21.90;12.27;;;;;;;1.12;100.00;101331.97;5013207;28;20437;-71
2023/01/20 06:16:34;;;;;;;26.23;12.13;;;;;;;1.21;100.00;101333.25;4995712;28;20061;-73
2023/01/20 06:19:00;;;;;;;26.03;13.60;;;;;;;1.26;100.00;101331.22;5012473;28;20026;-73
2023/01/20 06:21:26;;;;;;;22.57;11.90;;;;;;;1.27;100.00;101322.41;5012893;28;20176;-72
2023/01/20 06:23:52;;;;;;;18.57;12.10;;;;;;;1.27;100.00;101322.41;4995346;28;20030;-73
2023/01/20 06:26:17;;;;;;;22.80;13.90;;;;;;;1.24;100.00;101319.97;5012846;28;20157;-72
2023/01/20 06:28:43;;;;;;;17.07;11.20;;;;;;;1.33;100.00;101322.03;5012716;28;20289;-73
2023/01/20 06:31:14;;;;;;;22.43;12.83;;;;;;;1.33;100.00;101314.16;5013059;28;20026;-71
2023/01/20 06:33:40;;;;;;;20.47;11.47;;;;;;;1.37;100.00;101318.28;5012725;28;20469;-71
2023/01/20 06:36:06;;;;;;;19.93;11.57;;;;;;;1.41;100.00;101318.94;5012056;28;20265;-72
2023/01/20 06:38:33;;;;;;;18.17;9.53;;;;;;;1.38;100.00;101319.97;5012244;28;20720;-71
2023/01/20 06:41:01;;;;;;;15.70;11.03;;;;;;;1.33;100.00;101308.06;5012622;28;20271;-69
2023/01/20 06:43:28;;;;;;;21.00;11.57;;;;;;;1.41;100.00;101317.16;5012779;28;20740;-71
2023/01/20 06:45:59;;;;;;;19.97;11.40;;;;;;;1.45;100.00;101318.72;4995261;28;20267;-72
2023/01/20 06:48:24;;;;;;;21.97;12.73;;;;;;;1.42;100.00;101318.84;5012540;28;20296;-72
2023/01/20 06:50:50;;;;;;;20.90;12.83;;;;;;;1.44;100.00;101327.47;5012434;28;20611;-73
2023/01/20 06:53:16;;;;;;;17.77;13.17;;;;;;;1.45;100.00;101326.59;5012261;28;20086;-74
2023/01/20 06:55:42;;;;;;;25.50;13.20;;;;;;;1.44;100.00;101327.47;5012331;28;20755;-71
2023/01/20 06:58:07;;;;;;;16.93;11.17;;;;;;;1.46;100.00;101323.03;5013211;28;20033;-72
2023/01/20 07:00:33;;;;;;;22.20;12.10;;;;;;;1.45;100.00;101323.97;5012478;28;20026;-74
2023/01/20 07:02:58;;;;;;;18.90;11.63;;;;;;;1.42;100.00;101318.84;5012465;28;20054;-71
2023/01/20 07:05:24;;;;;;;23.07;12.00;;;;;;;1.46;100.00;101330.06;5011919;28;20524;-73
2023/01/20 07:07:49;;;;;;;22.60;13.73;;;;;;;1.48;100.00;101330.81;5013651;28;20076;-72
2023/01/20 07:10:15;;;;;;;21.70;13.70;;;;;;;1.39;100.00;101331.31;5016301;28;20028;-74
2023/01/20 07:12:40;;;;;;;24.13;12.93;;;;;;;1.35;100.00;101335.91;5016317;28;20465;-71
2023/01/20 07:15:06;;;;;;;22.10;14.30;;;;;;;1.32;100.00;101336.09;5015937;28;20108;-71
2023/01/20 07:17:32;;;;;;;19.20;12.27;;;;;;;1.28;100.00;101329.34;4998555;28;20120;-74
2023/01/20 07:19:57;;;;;;;23.60;14.17;;;;;;;1.28;100.00;101318.84;5016009;28;20284;-71
2023/01/20 07:22:23;;;;;;;17.73;11.37;;;;;;;1.30;100.00;101319.59;5016071;28;20412;-71
2023/01/20 07:24:48;;;;;;;18.20;11.33;;;;;;;1.26;100.00;101315.47;5016322;28;20030;-73
2023/01/20 07:27:14;;;;;;;17.23;12.10;;;;;;;1.30;100.00;101327.47;5017575;28;20468;-71
2023/01/20 07:29:40;;;;;;;16.60;11.03;;;;;;;1.22;100.00;101329.69;5020676;28;20025;-72
2023/01/20 07:32:06;;;;;;;19.60;12.03;;;;;;;1.23;100.00;101341.88;5018340;28;20022;-72
2023/01/20 07:34:32;;;;;;;19.43;12.30;;;;;;;1.22;100.00;101341.03;5016641;28;20308;-71
2023/01/20 07:37:03;;;;;;;15.93;11.30;;;;;;;1.14;100.00;101316.16;5016631;28;20026;-72
2023/01/20 07:39:29;;;;;;;20.73;12.20;;;;;;;1.30;100.00;101345.00;5017777;28;20260;-70
2023/01/20 07:41:54;;;;;;;20.07;11.60;;;;;;;1.25;100.00;101340.00;5019190;28;20611;-71
2023/01/20 07:44:20;;;;;;;17.20;11.37;;;;;;;1.20;100.00;101326.31;5018444;28;20040;-71
2023/01/20 07:47:00;;;;;;;19.93;12.27;;;;;;;1.27;100.00;101326.81;5020240;28;20458;-71
2023/01/20 07:49:26;;;;;;;17.67;11.90;;;;;;;1.29;100.00;101341.53;5004670;28;20108;-72
2023/01/20 07:51:51;;;;;;;18.63;11.03;;;;;;;1.28;100.00;101342.47;5032830;28;20249;-73
2023/01/20 07:54:42;;;;;;;19.70;12.13;;;;;;;1.27;100.00;101351.25;5032808;28;20049;-70
2023/01/20 07:57:08;;;;;;;23.10;11.47;;;;;;;1.31;100.00;101354.56;5032087;28;20272;-69
2023/01/20 07:59:33;;;;;;;20.53;11.03;;;;;;;1.30;100.00;101358.94;5030903;28;20026;-72
2023/01/20 08:02:01;;;;;;;14.90;10.70;;;;;;;1.29;100.00;101352.00;5011094;28;20047;-72
2023/01/20 08:04:27;;;;;;;12.37;9.23;;;;;;;1.35;100.00;101356.91;5027786;28;20069;-71
2023/01/20 08:06:55;;;;;;;17.17;10.20;;;;;;;1.40;100.00;101367.13;5018374;28;20624;-70
2023/01/20 08:09:24;;;;;;;18.33;9.93;;;;;;;1.34;100.00;101351.75;4998189;28;20026;-72
2023/01/20 08:11:49;;;;;;;15.30;9.15;;;;;;;1.45;100.00;101379.06;4997894;28;20072;-72
2023/01/20 08:14:15;;;;;;;15.03;10.00;;;;;;;1.42;100.00;101366.09;5015094;28;20069;-71
2023/01/20 08:16:40;;;;;;;17.93;9.37;;;;;;;1.48;100.00;101378.91;5015185;28;20390;-73
2023/01/20 08:19:06;;;;;;;17.57;10.50;;;;;;;1.48;100.00;101372.81;5014926;28;20033;-71
2023/01/20 08:21:32;;;;;;;11.70;8.27;;;;;;;1.51;100.00;101368.22;5015182;28;20030;-71
2023/01/20 08:23:59;;;;;;;18.03;8.37;;;;;;;1.63;100.00;101387.63;5016155;28;20492;-71
2023/01/20 08:26:28;;;;;;;11.77;8.27;;;;;;;1.61;100.00;101378.16;5015624;28;20257;-73
2023/01/20 08:28:54;;;;;;;13.13;8.30;;;;;;;1.59;100.00;101372.16;5015681;28;20320;-71
2023/01/20 08:31:22;;;;;;;16.40;8.40;;;;;;;1.61;100.00;101384.25;5015565;28;20095;-73
2023/01/20 08:33:53;;;;;;;12.93;8.40;;;;;;;1.64;100.00;101393.72;5015127;28;20345;-71
2023/01/20 08:36:21;;;;;;;14.33;8.60;;;;;;;1.55;100.00;101387.25;5015514;28;20815;-73
2023/01/20 08:38:47;;;;;;;14.35;7.65;;;;;;;1.54;100.00;101399.53;5015292;28;20348;-70
2023/01/20 08:41:30;;;;;;;12.73;8.63;;;;;;;1.49;100.00;101387.63;4981316;28;20537;-72
2023/01/20 08:43:58;;;;;;;11.43;8.30;;;;;;;1.47;100.00;101400.81;5015461;28;20068;-71
2023/01/20 08:46:23;;;;;;;15.97;9.13;;;;;;;1.42;100.00;101400.22;5015189;28;20688;-74
2023/01/20 08:48:50;;;;;;;12.40;8.53;;;;;;;1.41;100.00;101403.78;5014698;28;20354;-72
2023/01/20 08:51:30;;;;;;;11.00;8.30;;;;;;;1.38;100.00;101396.09;5014461;28;20057;-73
2023/01/20 08:53:56;;;;;;;13.63;8.67;;;;;;;1.44;100.00;101403.59;5014158;28;20656;-71
2023/01/20 08:56:26;;;;;;;20.73;9.33;;;;;;;1.43;100.00;101404.53;5014132;28;20279;-72
2023/01/20 08:58:52;;;;;;;10.80;8.13;;;;;;;1.47;100.00;101390.31;5014177;28;20269;-72
2023/01/20 09:01:36;;;;;;;14.57;8.27;;;;;;;1.47;100.00;101379.84;5012804;28;20288;-72
2023/01/20 09:04:04;;;;;;;11.53;8.97;;;;;;;1.51;100.00;101383.97;5013957;28;20363;-71
2023/01/20 09:06:31;;;;;;;13.53;9.57;;;;;;;1.47;100.00;101377.22;5014371;28;20601;-70
2023/01/20 09:08:56;;;;;;;14.57;8.33;;;;;;;1.59;100.00;101377.41;5014517;28;20277;-73
2023/01/20 09:11:26;;;;;;;12.63;8.23;;;;;;;1.52;100.00;101364.66;5012812;28;20280;-72
2023/01/20 09:13:52;;;;;;;12.80;8.50;;;;;;;1.50;100.00;101366.53;5013870;28;20124;-71
2023/01/20 09:16:18;;;;;;;12.27;8.40;;;;;;;1.51;100.00;101370.84;5014012;28;20354;-70
2023/01/20 09:18:44;;;;;;;11.73;8.67;;;;;;;1.43;100.00;101370.41;5015392;28;20301;-71
2023/01/20 09:21:10;;;;;;;14.53;8.33;;;;;;;1.42;100.00;101370.50;5014499;28;20088;-71
2023/01/20 09:23:38;;;;;;;13.73;9.30;;;;;;;1.43;100.00;101370.41;5014680;28;20408;-73
2023/01/20 09:26:05;;;;;;;16.25;9.88;;;;;;;1.41;100.00;101369.66;5014265;28;20340;-71
2023/01/20 09:28:31;;;;;;;11.10;9.00;;;;;;;1.39;100.00;101379.41;5014892;28;20033;-72
2023/01/20 09:31:07;;;;;;;10.83;8.17;;;;;;;1.39;100.00;101379.41;5013317;28;20268;-71
2023/01/20 09:33:37;;;;;;;12.13;9.00;;;;;;;1.38;100.00;101388.22;5014038;28;20263;-69
2023/01/20 09:36:04;;;;;;;12.43;8.47;;;;;;;1.34;100.00;101397.19;5013581;28;20272;-73
2023/01/20 09:44:21;;;;;;;9.73;7.27;;;;;;;1.38;100.00;101403.97;5013779;28;20624;-71
2023/01/20 09:47:21;;;;;;;11.55;7.65;;;;;;;1.46;100.00;101407.00;5013359;28;20798;-70
2023/01/20 09:55:50;;;;;;;12.97;7.07;;;;;;;1.60;100.00;101397.47;5013416;28;20288;-72
2023/01/20 09:58:24;;;;;;;16.83;10.15;;;;;;;1.62;100.00;101403.47;5013880;28;20285;-72
2023/01/20 10:01:00;;;;;;;13.13;7.40;;;;;;;1.53;100.00;101402.25;5013461;28;20523;-72
2023/01/20 10:03:39;;;;;;;10.57;7.37;;;;;;;1.45;100.00;101394.81;5013701;28;20300;-72
2023/01/20 10:06:15;;;;;;;9.65;6.88;;;;;;;1.49;100.00;101392.88;4995772;28;20319;-71
2023/01/20 10:08:53;;;;;;;11.13;7.97;;;;;;;1.53;100.00;101391.75;5013733;28;20033;-71
2023/01/20 10:11:21;;;;;;;;;;;;;;;1.58;100.00;101394.09;5013825;28;20761;-72
2023/01/20 10:13:51;;;;;;;9.60;6.77;;;;;;;1.52;100.00;101404.03;5013434;28;19909;-71
2023/01/20 10:16:28;;;;;;;10.80;7.00;;;;;;;1.41;100.00;101398.53;5012979;28;20689;-70
2023/01/20 10:19:00;;;;;;;10.43;7.17;;;;;;;1.45;100.00;101415.81;5012990;28;20268;-71
2023/01/20 10:21:51;;;;;;;12.67;6.90;;;;;;;1.55;100.00;101418.75;5012833;28;20264;-72
2023/01/20 10:24:23;;;;;;;12.53;6.70;;;;;;;1.33;100.00;101378.91;5012654;28;20778;-71
2023/01/20 10:26:55;;;;;;;8.87;6.83;;;;;;;1.54;100.00;101420.53;5012952;28;20256;-72
2023/01/20 10:29:36;;;;;;;12.97;8.13;;;;;;;1.36;100.00;101397.13;5012678;28;20331;-73
2023/01/20 10:32:07;;;;;;;11.53;7.07;;;;;;;1.48;100.00;101427.91;5012571;28;20288;-72
2023/01/20 10:34:47;;;;;;;14.77;6.83;;;;;;;1.48;100.00;101420.06;5012978;28;20252;-72
2023/01/20 10:37:14;;;;;;;10.47;7.07;;;;;;;1.48;100.00;101426.16;5012549;28;20273;-72
2023/01/20 10:39:39;;;;;;;12.43;6.77;;;;;;;1.59;100.00;101429.91;5012431;28;20379;-71
2023/01/20 10:42:13;;;;;;;12.57;6.87;;;;;;;1.61;100.00;101438.56;5011363;28;20300;-72
2023/01/20 10:44:42;;;;;;;12.20;6.93;;;;;;;1.56;100.00;101428.31;5012573;28;20029;-72
2023/01/20 10:47:15;;;;;;;10.33;7.33;;;;;;;1.58;100.00;101444.81;5012444;28;20260;-71
2023/01/20 10:49:52;;;;;;;8.73;6.53;;;;;;;1.52;100.00;101437.31;5012760;28;20307;-72
2023/01/20 10:52:45;;;;;;;8.67;6.23;;;;;;;1.48;100.00;101447.13;4995445;28;20268;-71
2023/01/20 10:55:32;;;;;;;7.67;5.47;;;;;;;1.45;100.00;101438.59;5021987;28;20268;-70
2023/01/20 10:58:32;;;;;;;7.27;6.13;;;;;;;1.36;100.00;101420.72;5013297;28;20265;-72
2023/01/20 11:01:03;;;;;;;8.93;5.77;;;;;;;1.49;100.00;101438.34;5002730;28;20277;-71
2023/01/20 11:03:37;;;;;;;6.70;5.50;;;;;;;1.40;100.00;101441.47;5014142;28;20288;-73
2023/01/20 11:06:03;;;;;;;6.13;5.50;;;;;;;1.35;100.00;101446.13;5012992;28;20384;-71
2023/01/20 11:08:29;;;;;;;8.93;5.43;;;;;;;1.31;100.00;101457.72;5012818;28;20383;-71
2023/01/20 11:11:04;;;;;;;7.67;5.13;;;;;;;1.25;100.00;101463.34;5012631;28;20030;-73
2023/01/20 11:13:30;;;;;;;9.63;5.60;;;;;;;1.27;100.00;101461.47;5011743;28;20356;-71
2023/01/20 11:16:00;;;;;;;6.93;4.70;;;;;;;1.27;100.00;101465.88;5012146;28;20788;-72
2023/01/20 11:18:29;;;;;;;6.70;6.00;;;;;;;1.29;100.00;101477.97;5012302;28;20025;-70
2023/01/20 11:20:58;;;;;;;6.22;4.43;;;;;;;1.28;100.00;101478.91;5012314;28;20261;-71
2023/01/20 11:23:41;;;;;;;5.80;4.63;;;;;;;1.32;100.00;101472.53;4993857;28;20120;-71
2023/01/20 11:29:56;;;;;;;6.07;4.37;;;;;;;1.34;100.00;101489.06;5011307;28;20292;-72
2023/01/20 11:32:30;;;;;;;7.33;4.50;;;;;;;1.34;100.00;101491.69;5012183;28;20257;-72
2023/01/20 11:34:57;;;;;;;6.93;4.67;;;;;;;1.25;100.00;101471.22;4994717;28;20268;-74
2023/01/20 11:37:26;;;;;;;9.17;6.07;;;;;;;1.29;100.00;101477.97;5012844;28;20748;-74
2023/01/20 11:39:56;;;;;;;6.03;4.78;;;;;;;1.37;100.00;101482.78;5012007;28;20363;-72